sensor_id;sensor_type;location;lat;lon;timestamp;temperature;humidity
19389;DHT22;9830;41.876;23.474;2023-02-24T00:02:02;5.40;99.90
19389;DHT22;9830;41.876;23.474;2023-02-24T00:04:37;5.30;99.90
19389;DHT22;9830;41.876;23.474;2023-02-24T00:07:05;5.30;99.90
19389;DHT22;9830;41.876;23.474;2023-02-24T00:09:31;5.40;99.90
19389;DHT22;9830;41.876;23.474;2023-02-24T00:12:00;5.40;99.90
19389;DHT22;9830;41.876;23.474;2023-02-24T00:14:29;5.40;99.90
19389;DHT22;9830;41.876;23.474;2023-02-24T00:16:55;5.50;99.90
19389;DHT22;9830;41.876;23.474;2023-02-24T00:19:24;5.50;99.90
19389;DHT22;9830;41.876;23.474;2023-02-24T00:21:51;5.50;99.90
19389;DHT22;9830;41.876;23.474;2023-02-24T00:24:19;5.50;99.90
19389;DHT22;9830;41.876;23.474;2023-02-24T00:26:45;5.40;99.90
19389;DHT22;9830;41.876;23.474;2023-02-24T00:29:12;5.30;99.90
19389;DHT22;9830;41.876;23.474;2023-02-24T00:31:38;5.20;99.90
19389;DHT22;9830;41.876;23.474;2023-02-24T00:34:06;5.20;99.90
19389;DHT22;9830;41.876;23.474;2023-02-24T00:36:33;5.30;99.90
19389;DHT22;9830;41.876;23.474;2023-02-24T00:39:01;5.40;99.90
19389;DHT22;9830;41.876;23.474;2023-02-24T00:41:30;5.50;99.90
19389;DHT22;9830;41.876;23.474;2023-02-24T00:44:04;5.60;99.90
19389;DHT22;9830;41.876;23.474;2023-02-24T00:46:34;5.70;99.90
19389;DHT22;9830;41.876;23.474;2023-02-24T00:49:03;5.70;99.90
19389;DHT22;9830;41.876;23.474;2023-02-24T00:51:35;5.70;99.90
19389;DHT22;9830;41.876;23.474;2023-02-24T00:54:01;5.70;99.90
19389;DHT22;9830;41.876;23.474;2023-02-24T00:56:28;5.70;99.90
19389;DHT22;9830;41.876;23.474;2023-02-24T01:05:38;5.50;99.90
19389;DHT22;9830;41.876;23.474;2023-02-24T01:11:31;5.60;99.90
19389;DHT22;9830;41.876;23.474;2023-02-24T01:14:18;5.60;99.90
19389;DHT22;9830;41.876;23.474;2023-02-24T01:16:44;5.60;99.90
19389;DHT22;9830;41.876;23.474;2023-02-24T01:19:15;5.70;99.90
19389;DHT22;9830;41.876;23.474;2023-02-24T01:21:41;5.70;99.90
19389;DHT22;9830;41.876;23.474;2023-02-24T01:24:07;5.70;99.90
19389;DHT22;9830;41.876;23.474;2023-02-24T01:26:35;5.70;99.90
19389;DHT22;9830;41.876;23.474;2023-02-24T01:29:01;5.70;99.90
19389;DHT22;9830;41.876;23.474;2023-02-24T01:31:28;5.80;99.90
19389;DHT22;9830;41.876;23.474;2023-02-24T01:33:54;5.80;99.90
19389;DHT22;9830;41.876;23.474;2023-02-24T01:36:24;5.80;99.90
19389;DHT22;9830;41.876;23.474;2023-02-24T01:38:50;5.80;99.90
19389;DHT22;9830;41.876;23.474;2023-02-24T01:41:26;5.80;99.90
19389;DHT22;9830;41.876;23.474;2023-02-24T01:46:35;5.80;99.90
19389;DHT22;9830;41.876;23.474;2023-02-24T01:49:07;5.70;99.90
19389;DHT22;9830;41.876;23.474;2023-02-24T01:52:00;5.70;99.90
19389;DHT22;9830;41.876;23.474;2023-02-24T01:54:31;5.70;99.90
19389;DHT22;9830;41.876;23.474;2023-02-24T01:56:58;5.60;99.90
19389;DHT22;9830;41.876;23.474;2023-02-24T01:59:27;5.60;99.90
19389;DHT22;9830;41.876;23.474;2023-02-24T02:01:57;5.60;99.90
19389;DHT22;9830;41.876;23.474;2023-02-24T02:04:39;5.60;99.90
19389;DHT22;9830;41.876;23.474;2023-02-24T02:07:09;5.70;99.90
19389;DHT22;9830;41.876;23.474;2023-02-24T02:09:38;5.70;99.90
19389;DHT22;9830;41.876;23.474;2023-02-24T02:12:06;5.70;99.90
19389;DHT22;9830;41.876;23.474;2023-02-24T02:14:40;5.70;99.90
19389;DHT22;9830;41.876;23.474;2023-02-24T02:20:14;5.60;99.90
19389;DHT22;9830;41.876;23.474;2023-02-24T02:30:44;5.50;99.90
19389;DHT22;9830;41.876;23.474;2023-02-24T02:36:16;5.60;99.90
19389;DHT22;9830;41.876;23.474;2023-02-24T02:39:10;5.60;99.90
19389;DHT22;9830;41.876;23.474;2023-02-24T02:42:17;5.60;99.90
19389;DHT22;9830;41.876;23.474;2023-02-24T02:45:02;5.60;99.90
19389;DHT22;9830;41.876;23.474;2023-02-24T02:47:43;5.70;99.90
19389;DHT22;9830;41.876;23.474;2023-02-24T02:50:50;5.70;99.90
19389;DHT22;9830;41.876;23.474;2023-02-24T02:56:50;5.60;99.90
19389;DHT22;9830;41.876;23.474;2023-02-24T02:59:16;5.60;99.90
19389;DHT22;9830;41.876;23.474;2023-02-24T03:01:48;5.60;99.90
19389;DHT22;9830;41.876;23.474;2023-02-24T03:04:16;5.70;99.90
19389;DHT22;9830;41.876;23.474;2023-02-24T03:06:54;5.70;99.90
19389;DHT22;9830;41.876;23.474;2023-02-24T03:09:29;5.70;99.90
19389;DHT22;9830;41.876;23.474;2023-02-24T03:12:07;5.70;99.90
19389;DHT22;9830;41.876;23.474;2023-02-24T03:14:38;5.70;99.90
19389;DHT22;9830;41.876;23.474;2023-02-24T03:17:09;5.70;99.90
19389;DHT22;9830;41.876;23.474;2023-02-24T03:19:38;5.70;99.90
19389;DHT22;9830;41.876;23.474;2023-02-24T03:22:10;5.70;99.90
19389;DHT22;9830;41.876;23.474;2023-02-24T03:24:39;5.70;99.90
19389;DHT22;9830;41.876;23.474;2023-02-24T03:30:27;5.70;99.90
19389;DHT22;9830;41.876;23.474;2023-02-24T03:33:05;5.70;99.90
19389;DHT22;9830;41.876;23.474;2023-02-24T03:35:37;5.80;99.90
19389;DHT22;9830;41.876;23.474;2023-02-24T03:38:03;5.70;99.90
19389;DHT22;9830;41.876;23.474;2023-02-24T03:40:31;5.70;99.90
19389;DHT22;9830;41.876;23.474;2023-02-24T03:43:25;5.70;99.90
19389;DHT22;9830;41.876;23.474;2023-02-24T03:45:52;5.70;99.90
19389;DHT22;9830;41.876;23.474;2023-02-24T03:48:19;5.70;99.90
19389;DHT22;9830;41.876;23.474;2023-02-24T03:50:46;5.70;99.90
19389;DHT22;9830;41.876;23.474;2023-02-24T03:56:19;5.70;99.90
19389;DHT22;9830;41.876;23.474;2023-02-24T04:01:48;5.70;99.90
19389;DHT22;9830;41.876;23.474;2023-02-24T04:04:41;5.70;99.90
19389;DHT22;9830;41.876;23.474;2023-02-24T04:07:16;5.70;99.90
19389;DHT22;9830;41.876;23.474;2023-02-24T04:18:02;5.70;99.90
19389;DHT22;9830;41.876;23.474;2023-02-24T04:20:31;5.70;99.90
19389;DHT22;9830;41.876;23.474;2023-02-24T04:23:13;5.70;99.90
19389;DHT22;9830;41.876;23.474;2023-02-24T04:25:42;5.70;99.90
19389;DHT22;9830;41.876;23.474;2023-02-24T04:28:09;5.70;99.90
19389;DHT22;9830;41.876;23.474;2023-02-24T04:30:40;5.70;99.90
19389;DHT22;9830;41.876;23.474;2023-02-24T04:33:06;5.70;99.90
19389;DHT22;9830;41.876;23.474;2023-02-24T04:35:32;5.60;99.90
19389;DHT22;9830;41.876;23.474;2023-02-24T04:37:58;5.70;99.90
19389;DHT22;9830;41.876;23.474;2023-02-24T04:40:25;5.70;99.90
19389;DHT22;9830;41.876;23.474;2023-02-24T04:42:52;5.80;99.90
19389;DHT22;9830;41.876;23.474;2023-02-24T04:45:19;5.90;99.90
19389;DHT22;9830;41.876;23.474;2023-02-24T04:47:51;5.80;99.90
19389;DHT22;9830;41.876;23.474;2023-02-24T04:50:22;5.80;99.90
19389;DHT22;9830;41.876;23.474;2023-02-24T04:52:57;5.70;99.90
19389;DHT22;9830;41.876;23.474;2023-02-24T04:55:26;5.70;99.90
19389;DHT22;9830;41.876;23.474;2023-02-24T04:58:00;5.70;99.90
19389;DHT22;9830;41.876;23.474;2023-02-24T05:00:27;5.80;99.90
19389;DHT22;9830;41.876;23.474;2023-02-24T05:02:59;5.80;99.90
19389;DHT22;9830;41.876;23.474;2023-02-24T05:05:28;5.70;99.90
19389;DHT22;9830;41.876;23.474;2023-02-24T05:08:03;5.80;99.90
19389;DHT22;9830;41.876;23.474;2023-02-24T05:10:38;5.90;99.90
19389;DHT22;9830;41.876;23.474;2023-02-24T05:13:05;5.90;99.90
19389;DHT22;9830;41.876;23.474;2023-02-24T05:15:31;5.90;99.90
19389;DHT22;9830;41.876;23.474;2023-02-24T05:17:59;5.90;99.90
19389;DHT22;9830;41.876;23.474;2023-02-24T05:20:26;5.90;99.90
19389;DHT22;9830;41.876;23.474;2023-02-24T05:23:11;5.90;99.90
19389;DHT22;9830;41.876;23.474;2023-02-24T05:25:37;5.90;99.90
19389;DHT22;9830;41.876;23.474;2023-02-24T05:28:06;5.80;99.90
19389;DHT22;9830;41.876;23.474;2023-02-24T05:30:31;5.80;99.90
19389;DHT22;9830;41.876;23.474;2023-02-24T05:32:58;5.90;99.90
19389;DHT22;9830;41.876;23.474;2023-02-24T05:35:24;5.90;99.90
19389;DHT22;9830;41.876;23.474;2023-02-24T05:37:50;6.00;99.90
19389;DHT22;9830;41.876;23.474;2023-02-24T05:40:16;5.90;99.90
19389;DHT22;9830;41.876;23.474;2023-02-24T05:42:47;5.90;99.90
19389;DHT22;9830;41.876;23.474;2023-02-24T05:45:13;5.90;99.90
19389;DHT22;9830;41.876;23.474;2023-02-24T05:47:38;5.90;99.90
19389;DHT22;9830;41.876;23.474;2023-02-24T05:50:05;5.90;99.90
19389;DHT22;9830;41.876;23.474;2023-02-24T05:52:34;5.90;99.90
19389;DHT22;9830;41.876;23.474;2023-02-24T05:55:01;6.00;99.90
19389;DHT22;9830;41.876;23.474;2023-02-24T05:57:31;6.10;99.90
19389;DHT22;9830;41.876;23.474;2023-02-24T06:00:00;6.20;99.90
19389;DHT22;9830;41.876;23.474;2023-02-24T06:02:35;6.50;99.90
19389;DHT22;9830;41.876;23.474;2023-02-24T06:05:02;6.70;99.90
19389;DHT22;9830;41.876;23.474;2023-02-24T06:07:30;6.80;99.90
19389;DHT22;9830;41.876;23.474;2023-02-24T06:10:00;6.90;99.90
19389;DHT22;9830;41.876;23.474;2023-02-24T06:12:31;7.00;99.90
19389;DHT22;9830;41.876;23.474;2023-02-24T06:15:00;7.10;99.90
19389;DHT22;9830;41.876;23.474;2023-02-24T06:17:31;7.20;99.90
19389;DHT22;9830;41.876;23.474;2023-02-24T06:19:57;7.40;99.90
19389;DHT22;9830;41.876;23.474;2023-02-24T06:22:24;7.70;99.90
19389;DHT22;9830;41.876;23.474;2023-02-24T06:24:51;7.90;99.90
19389;DHT22;9830;41.876;23.474;2023-02-24T06:27:19;8.20;99.90
19389;DHT22;9830;41.876;23.474;2023-02-24T06:29:48;8.50;99.90
19389;DHT22;9830;41.876;23.474;2023-02-24T06:32:18;8.70;99.90
19389;DHT22;9830;41.876;23.474;2023-02-24T06:34:45;9.30;99.90
19389;DHT22;9830;41.876;23.474;2023-02-24T06:37:13;10.10;99.90
19389;DHT22;9830;41.876;23.474;2023-02-24T06:39:39;11.10;99.90
19389;DHT22;9830;41.876;23.474;2023-02-24T06:42:06;11.80;99.90
19389;DHT22;9830;41.876;23.474;2023-02-24T06:44:35;12.60;99.90
19389;DHT22;9830;41.876;23.474;2023-02-24T06:47:04;13.90;99.90
19389;DHT22;9830;41.876;23.474;2023-02-24T06:49:30;15.90;90.00
19389;DHT22;9830;41.876;23.474;2023-02-24T06:51:56;15.70;86.10
19389;DHT22;9830;41.876;23.474;2023-02-24T06:54:23;15.40;88.50
19389;DHT22;9830;41.876;23.474;2023-02-24T06:57:00;16.40;86.40
19389;DHT22;9830;41.876;23.474;2023-02-24T06:59:28;18.40;69.20
19389;DHT22;9830;41.876;23.474;2023-02-24T07:01:55;18.90;61.80
19389;DHT22;9830;41.876;23.474;2023-02-24T07:04:21;18.30;63.40
19389;DHT22;9830;41.876;23.474;2023-02-24T07:06:59;17.60;68.10
19389;DHT22;9830;41.876;23.474;2023-02-24T07:09:28;16.00;75.90
19389;DHT22;9830;41.876;23.474;2023-02-24T07:11:55;16.10;79.20
19389;DHT22;9830;41.876;23.474;2023-02-24T07:14:26;15.90;80.20
19389;DHT22;9830;41.876;23.474;2023-02-24T07:16:54;15.40;85.00
19389;DHT22;9830;41.876;23.474;2023-02-24T07:19:25;14.80;90.20
19389;DHT22;9830;41.876;23.474;2023-02-24T07:21:55;15.10;90.50
19389;DHT22;9830;41.876;23.474;2023-02-24T07:24:25;16.00;82.00
19389;DHT22;9830;41.876;23.474;2023-02-24T07:26:59;15.90;81.00
19389;DHT22;9830;41.876;23.474;2023-02-24T07:29:26;15.90;80.40
19389;DHT22;9830;41.876;23.474;2023-02-24T07:31:53;14.90;88.00
19389;DHT22;9830;41.876;23.474;2023-02-24T07:34:23;14.30;92.10
19389;DHT22;9830;41.876;23.474;2023-02-24T07:36:51;13.20;95.50
19389;DHT22;9830;41.876;23.474;2023-02-24T07:39:18;12.90;98.50
19389;DHT22;9830;41.876;23.474;2023-02-24T07:41:44;12.20;99.90
19389;DHT22;9830;41.876;23.474;2023-02-24T07:44:11;11.70;99.90
19389;DHT22;9830;41.876;23.474;2023-02-24T07:46:38;11.30;99.90
19389;DHT22;9830;41.876;23.474;2023-02-24T07:49:05;11.00;99.90
19389;DHT22;9830;41.876;23.474;2023-02-24T07:51:34;10.90;99.90
19389;DHT22;9830;41.876;23.474;2023-02-24T07:54:00;10.90;99.90
19389;DHT22;9830;41.876;23.474;2023-02-24T07:56:28;10.70;99.90
19389;DHT22;9830;41.876;23.474;2023-02-24T07:59:05;10.60;99.90
19389;DHT22;9830;41.876;23.474;2023-02-24T08:01:36;10.50;99.90
19389;DHT22;9830;41.876;23.474;2023-02-24T08:04:07;10.40;99.90
19389;DHT22;9830;41.876;23.474;2023-02-24T08:06:35;10.20;99.90
19389;DHT22;9830;41.876;23.474;2023-02-24T08:09:12;10.30;99.90
19389;DHT22;9830;41.876;23.474;2023-02-24T08:11:43;10.40;99.90
19389;DHT22;9830;41.876;23.474;2023-02-24T08:14:11;10.40;99.90
19389;DHT22;9830;41.876;23.474;2023-02-24T08:16:46;10.60;99.90
19389;DHT22;9830;41.876;23.474;2023-02-24T08:19:15;10.70;99.90
19389;DHT22;9830;41.876;23.474;2023-02-24T08:21:50;10.50;99.90
19389;DHT22;9830;41.876;23.474;2023-02-24T08:24:22;10.40;99.90
19389;DHT22;9830;41.876;23.474;2023-02-24T08:26:55;10.50;99.90
19389;DHT22;9830;41.876;23.474;2023-02-24T08:29:35;10.60;99.90
19389;DHT22;9830;41.876;23.474;2023-02-24T08:32:08;10.50;99.90
19389;DHT22;9830;41.876;23.474;2023-02-24T08:34:35;11.00;99.90
19389;DHT22;9830;41.876;23.474;2023-02-24T08:37:01;11.50;99.90
19389;DHT22;9830;41.876;23.474;2023-02-24T08:39:27;12.00;99.90
19389;DHT22;9830;41.876;23.474;2023-02-24T08:41:58;12.20;99.90
19389;DHT22;9830;41.876;23.474;2023-02-24T08:44:24;11.80;99.90
19389;DHT22;9830;41.876;23.474;2023-02-24T08:46:52;11.50;99.90
19389;DHT22;9830;41.876;23.474;2023-02-24T08:49:19;11.50;99.90
19389;DHT22;9830;41.876;23.474;2023-02-24T08:51:50;11.70;99.90
19389;DHT22;9830;41.876;23.474;2023-02-24T08:54:26;11.80;99.90
19389;DHT22;9830;41.876;23.474;2023-02-24T08:56:57;11.80;99.90
19389;DHT22;9830;41.876;23.474;2023-02-24T08:59:34;11.60;99.90
19389;DHT22;9830;41.876;23.474;2023-02-24T09:02:12;11.50;99.90
19389;DHT22;9830;41.876;23.474;2023-02-24T09:04:54;11.40;99.90
19389;DHT22;9830;41.876;23.474;2023-02-24T09:07:28;11.10;99.90
19389;DHT22;9830;41.876;23.474;2023-02-24T09:10:00;10.90;99.90
19389;DHT22;9830;41.876;23.474;2023-02-24T09:12:27;11.20;99.90
19389;DHT22;9830;41.876;23.474;2023-02-24T09:14:59;11.30;99.90
19389;DHT22;9830;41.876;23.474;2023-02-24T09:17:28;11.50;99.90
19389;DHT22;9830;41.876;23.474;2023-02-24T09:20:15;11.20;99.90
19389;DHT22;9830;41.876;23.474;2023-02-24T09:22:50;11.00;99.90
19389;DHT22;9830;41.876;23.474;2023-02-24T09:25:28;11.30;99.90
19389;DHT22;9830;41.876;23.474;2023-02-24T09:28:12;11.40;99.90
19389;DHT22;9830;41.876;23.474;2023-02-24T09:30:51;11.70;99.90
19389;DHT22;9830;41.876;23.474;2023-02-24T09:38:24;12.20;99.90
19389;DHT22;9830;41.876;23.474;2023-02-24T09:41:22;12.50;99.90
19389;DHT22;9830;41.876;23.474;2023-02-24T09:43:57;12.80;99.90
19389;DHT22;9830;41.876;23.474;2023-02-24T09:46:36;12.80;99.90
19389;DHT22;9830;41.876;23.474;2023-02-24T09:49:17;12.70;99.90
19389;DHT22;9830;41.876;23.474;2023-02-24T09:51:43;12.80;99.90
19389;DHT22;9830;41.876;23.474;2023-02-24T09:54:19;12.90;99.90
19389;DHT22;9830;41.876;23.474;2023-02-24T09:57:01;12.70;99.90
19389;DHT22;9830;41.876;23.474;2023-02-24T09:59:47;13.00;99.90
19389;DHT22;9830;41.876;23.474;2023-02-24T10:02:43;13.60;99.90
19389;DHT22;9830;41.876;23.474;2023-02-24T10:05:39;14.70;96.20
19389;DHT22;9830;41.876;23.474;2023-02-24T10:08:19;15.10;91.70
19389;DHT22;9830;41.876;23.474;2023-02-24T10:10:50;14.40;97.80
19389;DHT22;9830;41.876;23.474;2023-02-24T10:13:32;14.10;97.10
19389;DHT22;9830;41.876;23.474;2023-02-24T10:16:01;14.20;96.80
19389;DHT22;9830;41.876;23.474;2023-02-24T10:18:59;13.90;96.10
19389;DHT22;9830;41.876;23.474;2023-02-24T10:32:48;13.90;94.80
19389;DHT22;9830;41.876;23.474;2023-02-24T10:35:19;13.90;94.80
19389;DHT22;9830;41.876;23.474;2023-02-24T10:37:46;13.80;94.00
19389;DHT22;9830;41.876;23.474;2023-02-24T10:40:14;13.80;93.00
19389;DHT22;9830;41.876;23.474;2023-02-24T10:43:02;14.10;92.30
19389;DHT22;9830;41.876;23.474;2023-02-24T10:45:29;14.40;91.40
19389;DHT22;9830;41.876;23.474;2023-02-24T10:47:59;14.60;89.40
19389;DHT22;9830;41.876;23.474;2023-02-24T10:50:38;14.40;90.30
19389;DHT22;9830;41.876;23.474;2023-02-24T10:53:13;14.00;94.30
19389;DHT22;9830;41.876;23.474;2023-02-24T10:56:00;14.10;95.40
19389;DHT22;9830;41.876;23.474;2023-02-24T10:58:46;14.80;93.20
19389;DHT22;9830;41.876;23.474;2023-02-24T11:01:19;15.40;91.10
19389;DHT22;9830;41.876;23.474;2023-02-24T11:04:10;15.30;87.80
19389;DHT22;9830;41.876;23.474;2023-02-24T11:07:13;15.60;85.60
19389;DHT22;9830;41.876;23.474;2023-02-24T11:12:45;16.70;74.40
19389;DHT22;9830;41.876;23.474;2023-02-24T11:15:43;16.80;72.50
19389;DHT22;9830;41.876;23.474;2023-02-24T11:18:30;16.00;79.60
19389;DHT22;9830;41.876;23.474;2023-02-24T11:21:04;16.20;81.50
19389;DHT22;9830;41.876;23.474;2023-02-24T11:23:44;15.90;80.20
19389;DHT22;9830;41.876;23.474;2023-02-24T11:26:25;15.40;84.50
19389;DHT22;9830;41.876;23.474;2023-02-24T11:34:54;15.20;88.00
19389;DHT22;9830;41.876;23.474;2023-02-24T11:45:42;15.00;90.10
19389;DHT22;9830;41.876;23.474;2023-02-24T11:48:31;15.00;89.70
19389;DHT22;9830;41.876;23.474;2023-02-24T11:51:34;15.10;87.00
19389;DHT22;9830;41.876;23.474;2023-02-24T11:53:57;14.90;83.30
19389;DHT22;9830;41.876;23.474;2023-02-24T11:56:29;15.00;82.50
19389;DHT22;9830;41.876;23.474;2023-02-24T11:59:13;15.30;81.60
19389;DHT22;9830;41.876;23.474;2023-02-24T12:01:56;15.60;79.20
19389;DHT22;9830;41.876;23.474;2023-02-24T12:13:35;16.50;69.50
19389;DHT22;9830;41.876;23.474;2023-02-24T12:15:38;16.60;64.80
19389;DHT22;9830;41.876;23.474;2023-02-24T12:20:51;16.90;61.30
19389;DHT22;9830;41.876;23.474;2023-02-24T12:23:21;17.10;61.90
19389;DHT22;9830;41.876;23.474;2023-02-24T12:36:52;16.50;61.00
19389;DHT22;9830;41.876;23.474;2023-02-24T12:39:30;16.40;60.50
19389;DHT22;9830;41.876;23.474;2023-02-24T12:45:25;16.50;63.10
19389;DHT22;9830;41.876;23.474;2023-02-24T12:53:19;16.30;58.20
19389;DHT22;9830;41.876;23.474;2023-02-24T12:58:25;16.30;57.30
19389;DHT22;9830;41.876;23.474;2023-02-24T13:19:38;15.50;57.60
19389;DHT22;9830;41.876;23.474;2023-02-24T13:22:05;15.60;55.90
19389;DHT22;9830;41.876;23.474;2023-02-24T13:24:32;15.60;56.30
19389;DHT22;9830;41.876;23.474;2023-02-24T13:27:06;15.20;56.20
19389;DHT22;9830;41.876;23.474;2023-02-24T13:29:45;14.90;55.90
19389;DHT22;9830;41.876;23.474;2023-02-24T13:34:49;14.80;58.60
19389;DHT22;9830;41.876;23.474;2023-02-24T13:37:36;14.70;59.90
19389;DHT22;9830;41.876;23.474;2023-02-24T13:45:33;15.10;60.00
19389;DHT22;9830;41.876;23.474;2023-02-24T13:53:45;14.90;59.40
19389;DHT22;9830;41.876;23.474;2023-02-24T13:56:43;14.80;59.40
19389;DHT22;9830;41.876;23.474;2023-02-24T13:59:24;14.90;58.20
19389;DHT22;9830;41.876;23.474;2023-02-24T14:04:33;14.80;57.20
19389;DHT22;9830;41.876;23.474;2023-02-24T14:07:08;14.90;56.60
19389;DHT22;9830;41.876;23.474;2023-02-24T14:09:42;14.80;56.60
19389;DHT22;9830;41.876;23.474;2023-02-24T14:12:15;14.70;57.20
19389;DHT22;9830;41.876;23.474;2023-02-24T14:14:43;14.60;57.80
19389;DHT22;9830;41.876;23.474;2023-02-24T14:17:25;14.60;57.60
19389;DHT22;9830;41.876;23.474;2023-02-24T14:19:54;14.60;58.20
19389;DHT22;9830;41.876;23.474;2023-02-24T14:22:20;14.60;59.50
19389;DHT22;9830;41.876;23.474;2023-02-24T14:24:46;14.50;60.70
19389;DHT22;9830;41.876;23.474;2023-02-24T14:27:25;14.30;62.40
19389;DHT22;9830;41.876;23.474;2023-02-24T14:29:51;14.30;60.90
19389;DHT22;9830;41.876;23.474;2023-02-24T14:32:23;14.30;62.10
19389;DHT22;9830;41.876;23.474;2023-02-24T14:34:49;14.30;60.90
19389;DHT22;9830;41.876;23.474;2023-02-24T14:37:16;14.20;61.90
19389;DHT22;9830;41.876;23.474;2023-02-24T14:39:51;14.10;63.10
19389;DHT22;9830;41.876;23.474;2023-02-24T14:42:18;14.00;62.80
19389;DHT22;9830;41.876;23.474;2023-02-24T14:44:55;13.90;66.60
19389;DHT22;9830;41.876;23.474;2023-02-24T14:47:24;13.70;65.80
19389;DHT22;9830;41.876;23.474;2023-02-24T14:55:12;13.20;69.70
19389;DHT22;9830;41.876;23.474;2023-02-24T15:00:21;12.80;66.80
19389;DHT22;9830;41.876;23.474;2023-02-24T15:03:19;12.70;69.80
19389;DHT22;9830;41.876;23.474;2023-02-24T15:05:53;12.50;72.60
19389;DHT22;9830;41.876;23.474;2023-02-24T15:10:51;12.10;77.20
19389;DHT22;9830;41.876;23.474;2023-02-24T15:13:26;12.10;79.00
19389;DHT22;9830;41.876;23.474;2023-02-24T15:15:54;12.10;78.50
19389;DHT22;9830;41.876;23.474;2023-02-24T15:18:26;12.10;79.00
19389;DHT22;9830;41.876;23.474;2023-02-24T15:21:04;12.20;79.80
19389;DHT22;9830;41.876;23.474;2023-02-24T15:23:36;12.10;80.00
19389;DHT22;9830;41.876;23.474;2023-02-24T15:26:04;12.10;80.00
19389;DHT22;9830;41.876;23.474;2023-02-24T15:28:34;12.10;81.30
19389;DHT22;9830;41.876;23.474;2023-02-24T15:31:15;11.90;89.90
19389;DHT22;9830;41.876;23.474;2023-02-24T15:33:43;11.60;91.40
19389;DHT22;9830;41.876;23.474;2023-02-24T15:36:22;11.40;93.00
19389;DHT22;9830;41.876;23.474;2023-02-24T15:38:57;11.10;94.90
19389;DHT22;9830;41.876;23.474;2023-02-24T15:41:24;11.00;95.70
19389;DHT22;9830;41.876;23.474;2023-02-24T15:43:51;10.90;96.20
19389;DHT22;9830;41.876;23.474;2023-02-24T15:46:30;10.80;97.40
19389;DHT22;9830;41.876;23.474;2023-02-24T15:48:57;10.70;98.40
19389;DHT22;9830;41.876;23.474;2023-02-24T15:53:59;10.50;99.90
19389;DHT22;9830;41.876;23.474;2023-02-24T15:56:26;10.30;99.90
19389;DHT22;9830;41.876;23.474;2023-02-24T15:58:52;10.20;99.90
19389;DHT22;9830;41.876;23.474;2023-02-24T16:01:17;10.10;99.90
19389;DHT22;9830;41.876;23.474;2023-02-24T16:03:44;10.00;99.90
19389;DHT22;9830;41.876;23.474;2023-02-24T16:06:21;9.90;99.90
19389;DHT22;9830;41.876;23.474;2023-02-24T16:08:47;9.70;99.90
19389;DHT22;9830;41.876;23.474;2023-02-24T16:11:16;9.50;99.90
19389;DHT22;9830;41.876;23.474;2023-02-24T16:13:50;9.30;99.90
19389;DHT22;9830;41.876;23.474;2023-02-24T16:16:16;9.10;99.90
19389;DHT22;9830;41.876;23.474;2023-02-24T16:18:43;8.90;99.90
19389;DHT22;9830;41.876;23.474;2023-02-24T16:21:09;8.70;99.90
19389;DHT22;9830;41.876;23.474;2023-02-24T16:23:34;8.60;99.90
19389;DHT22;9830;41.876;23.474;2023-02-24T16:26:12;8.40;99.90
19389;DHT22;9830;41.876;23.474;2023-02-24T16:28:39;8.30;99.90
19389;DHT22;9830;41.876;23.474;2023-02-24T16:31:04;8.10;99.90
19389;DHT22;9830;41.876;23.474;2023-02-24T16:33:31;8.00;99.90
19389;DHT22;9830;41.876;23.474;2023-02-24T16:35:58;7.90;99.90
19389;DHT22;9830;41.876;23.474;2023-02-24T16:38:24;7.80;99.90
19389;DHT22;9830;41.876;23.474;2023-02-24T16:40:54;7.70;99.90
19389;DHT22;9830;41.876;23.474;2023-02-24T16:43:20;7.70;99.90
19389;DHT22;9830;41.876;23.474;2023-02-24T16:45:46;7.60;99.90
19389;DHT22;9830;41.876;23.474;2023-02-24T16:48:19;7.50;99.90
19389;DHT22;9830;41.876;23.474;2023-02-24T16:50:46;7.50;99.90
19389;DHT22;9830;41.876;23.474;2023-02-24T16:53:17;7.50;99.90
19389;DHT22;9830;41.876;23.474;2023-02-24T16:55:44;7.50;99.90
19389;DHT22;9830;41.876;23.474;2023-02-24T16:58:11;7.50;99.90
19389;DHT22;9830;41.876;23.474;2023-02-24T17:00:38;7.50;99.90
19389;DHT22;9830;41.876;23.474;2023-02-24T17:03:26;7.50;99.90
19389;DHT22;9830;41.876;23.474;2023-02-24T17:05:53;7.60;99.90
19389;DHT22;9830;41.876;23.474;2023-02-24T17:08:19;7.60;99.90
19389;DHT22;9830;41.876;23.474;2023-02-24T17:10:45;7.70;99.90
19389;DHT22;9830;41.876;23.474;2023-02-24T17:13:17;7.70;99.90
19389;DHT22;9830;41.876;23.474;2023-02-24T17:15:43;7.70;99.90
19389;DHT22;9830;41.876;23.474;2023-02-24T17:18:09;7.70;99.90
19389;DHT22;9830;41.876;23.474;2023-02-24T17:20:37;7.70;99.90
19389;DHT22;9830;41.876;23.474;2023-02-24T17:23:03;7.70;99.90
19389;DHT22;9830;41.876;23.474;2023-02-24T17:25:30;7.70;99.90
19389;DHT22;9830;41.876;23.474;2023-02-24T17:27:56;7.80;99.90
19389;DHT22;9830;41.876;23.474;2023-02-24T17:30:28;7.80;99.90
19389;DHT22;9830;41.876;23.474;2023-02-24T17:32:54;7.90;99.90
19389;DHT22;9830;41.876;23.474;2023-02-24T17:35:21;7.90;99.90
19389;DHT22;9830;41.876;23.474;2023-02-24T17:37:46;7.80;99.90
19389;DHT22;9830;41.876;23.474;2023-02-24T17:40:12;7.80;99.90
19389;DHT22;9830;41.876;23.474;2023-02-24T17:42:38;7.70;99.90
19389;DHT22;9830;41.876;23.474;2023-02-24T17:45:05;7.70;99.90
19389;DHT22;9830;41.876;23.474;2023-02-24T17:47:31;7.60;99.90
19389;DHT22;9830;41.876;23.474;2023-02-24T17:49:57;7.50;99.90
19389;DHT22;9830;41.876;23.474;2023-02-24T17:52:22;7.50;99.90
19389;DHT22;9830;41.876;23.474;2023-02-24T17:54:48;7.40;99.90
19389;DHT22;9830;41.876;23.474;2023-02-24T17:57:14;7.40;99.90
19389;DHT22;9830;41.876;23.474;2023-02-24T17:59:42;7.30;99.90
19389;DHT22;9830;41.876;23.474;2023-02-24T18:02:11;7.30;99.90
19389;DHT22;9830;41.876;23.474;2023-02-24T18:04:37;7.20;99.90
19389;DHT22;9830;41.876;23.474;2023-02-24T18:07:02;7.10;99.90
19389;DHT22;9830;41.876;23.474;2023-02-24T18:09:28;6.90;99.90
19389;DHT22;9830;41.876;23.474;2023-02-24T18:11:54;7.00;99.90
19389;DHT22;9830;41.876;23.474;2023-02-24T18:14:20;6.80;99.90
19389;DHT22;9830;41.876;23.474;2023-02-24T18:16:46;6.70;99.90
19389;DHT22;9830;41.876;23.474;2023-02-24T18:19:11;6.50;99.90
19389;DHT22;9830;41.876;23.474;2023-02-24T18:21:37;6.50;99.90
19389;DHT22;9830;41.876;23.474;2023-02-24T18:24:03;6.40;99.90
19389;DHT22;9830;41.876;23.474;2023-02-24T18:26:29;6.30;99.90
19389;DHT22;9830;41.876;23.474;2023-02-24T18:28:55;6.30;99.90
19389;DHT22;9830;41.876;23.474;2023-02-24T18:31:24;6.20;99.90
19389;DHT22;9830;41.876;23.474;2023-02-24T18:33:50;6.20;99.90
19389;DHT22;9830;41.876;23.474;2023-02-24T18:36:16;6.20;99.90
19389;DHT22;9830;41.876;23.474;2023-02-24T18:38:42;6.10;99.90
19389;DHT22;9830;41.876;23.474;2023-02-24T18:41:13;6.10;99.90
19389;DHT22;9830;41.876;23.474;2023-02-24T18:43:40;5.80;99.90
19389;DHT22;9830;41.876;23.474;2023-02-24T18:46:11;5.60;99.90
19389;DHT22;9830;41.876;23.474;2023-02-24T18:48:37;5.50;99.90
19389;DHT22;9830;41.876;23.474;2023-02-24T18:51:04;5.40;99.90